Time;durP1;ratioP1;P1;durP2;ratioP2;P2;SDS_P1;SDS_P2;PMS_P1;PMS_P2;Temp;Humidity;BMP_temperature;BMP_pressure;BME280_temperature;BME280_humidity;BME280_pressure;Samples;Min_cycle;Max_cycle;Signal;HPM_P1;HPM_P2
2022/12/12 00:01:36;;;;;;;;;;;17.50;61.70;;;;;;4514032;31;20037;-66
2022/12/12 00:04:03;;;;;;;;;;;17.50;61.70;;;;;;4514528;31;20072;-67
2022/12/12 00:06:28;;;;;;;;;;;17.50;61.70;;;;;;4514620;31;20036;-67
2022/12/12 00:08:55;;;;;;;;;;;17.50;61.70;;;;;;4513777;31;20087;-67
2022/12/12 00:11:21;;;;;;;;;;;17.50;61.70;;;;;;4514853;31;20150;-67
2022/12/12 00:13:47;;;;;;;;;;;17.50;61.70;;;;;;4512868;31;20040;-67
2022/12/12 00:16:13;;;;;;;;;;;17.40;61.70;;;;;;4514402;31;20041;-67
2022/12/12 00:18:39;;;;;;;;;;;17.40;61.60;;;;;;4512847;31;20027;-67
2022/12/12 00:21:10;;;;;;;;;;;17.40;61.60;;;;;;4514352;31;20040;-67
2022/12/12 00:23:35;;;;;;;;;;;17.40;61.60;;;;;;4514143;31;20037;-67
2022/12/12 00:26:04;;;;;;;;;;;17.40;61.60;;;;;;4512667;31;20048;-67
2022/12/12 00:28:30;;;;;;;;;;;17.40;61.60;;;;;;4514504;31;20034;-67
2022/12/12 00:30:56;;;;;;;;;;;17.40;61.70;;;;;;4512525;31;20021;-67
2022/12/12 00:33:22;;;;;;;;;;;17.40;61.70;;;;;;4513154;31;20017;-67
2022/12/12 00:35:52;;;;;;;;;;;17.30;61.60;;;;;;4513503;31;20021;-67
2022/12/12 00:38:19;;;;;;;;;;;17.30;61.60;;;;;;4513805;31;20024;-67
2022/12/12 00:40:59;;;;;;;;;;;17.30;61.70;;;;;;4513141;31;20497;-68
2022/12/12 00:43:25;;;;;;;;;;;17.30;61.70;;;;;;4513421;31;20034;-67
2022/12/12 00:45:51;;;;;;;;;;;17.30;61.70;;;;;;4513167;31;20406;-67
2022/12/12 00:48:17;;;;;;;;;;;17.30;61.70;;;;;;4512173;31;20122;-67
2022/12/12 00:50:43;;;;;;;;;;;17.20;61.60;;;;;;4513057;31;20040;-67
2022/12/12 00:53:09;;;;;;;;;;;17.20;61.70;;;;;;4513590;31;20032;-67
2022/12/12 00:55:35;;;;;;;;;;;17.20;61.70;;;;;;4513557;31;20017;-67
2022/12/12 00:58:00;;;;;;;;;;;17.20;61.60;;;;;;4512510;31;20013;-67
2022/12/12 01:00:27;;;;;;;;;;;17.20;61.60;;;;;;4513260;31;20068;-67
2022/12/12 01:02:55;;;;;;;;;;;17.20;61.60;;;;;;4513875;31;20086;-67
2022/12/12 01:05:21;;;;;;;;;;;17.20;61.60;;;;;;4513068;31;20020;-67
2022/12/12 01:07:47;;;;;;;;;;;17.20;61.60;;;;;;4513630;31;20032;-67
2022/12/12 01:10:15;;;;;;;;;;;17.30;61.60;;;;;;4513200;31;20020;-67
2022/12/12 01:12:41;;;;;;;;;;;17.30;61.60;;;;;;4513404;31;20035;-67
2022/12/12 01:15:07;;;;;;;;;;;17.30;61.50;;;;;;4513336;31;20032;-67
2022/12/12 01:17:36;;;;;;;;;;;17.30;61.50;;;;;;4512796;31;20032;-67
2022/12/12 01:20:07;;;;;;;;;;;17.30;61.50;;;;;;4512717;31;20039;-67
2022/12/12 01:22:33;;;;;;;;;;;17.30;61.40;;;;;;4512933;31;20154;-67
2022/12/12 01:25:07;;;;;;;;;;;17.30;61.30;;;;;;4513407;31;20024;-67
2022/12/12 01:27:44;;;;;;;;;;;17.40;61.30;;;;;;4512399;31;20210;-67
2022/12/12 01:30:12;;;;;;;;;;;17.40;61.30;;;;;;4512990;31;20128;-67
2022/12/12 01:32:37;;;;;;;;;;;17.40;61.20;;;;;;4512619;31;20028;-67
2022/12/12 01:35:07;;;;;;;;;;;17.40;61.20;;;;;;4511599;31;20027;-67
2022/12/12 01:37:36;;;;;;;;;;;17.40;61.20;;;;;;4513694;31;20046;-67
2022/12/12 01:40:03;;;;;;;;;;;17.40;61.10;;;;;;4512861;31;20509;-67
2022/12/12 01:42:29;;;;;;;;;;;17.30;61.00;;;;;;4512443;31;20029;-67
2022/12/12 01:44:54;;;;;;;;;;;17.40;61.10;;;;;;4513245;31;20013;-67
2022/12/12 01:47:21;;;;;;;;;;;17.40;61.10;;;;;;4512516;31;20052;-67
2022/12/12 01:49:51;;;;;;;;;;;17.40;61.10;;;;;;4513726;31;20019;-67
2022/12/12 01:52:20;;;;;;;;;;;17.40;61.10;;;;;;4512522;31;20044;-67
2022/12/12 01:54:47;;;;;;;;;;;17.40;61.10;;;;;;4513320;31;20378;-67
2022/12/12 01:57:19;;;;;;;;;;;17.40;61.10;;;;;;4511544;31;20061;-68
2022/12/12 01:59:45;;;;;;;;;;;17.40;61.00;;;;;;4512871;31;20028;-67
2022/12/12 02:02:11;;;;;;;;;;;17.40;61.00;;;;;;4513072;31;20354;-67
2022/12/12 02:04:37;;;;;;;;;;;17.40;61.00;;;;;;4512526;31;20033;-67
2022/12/12 02:07:03;;;;;;;;;;;17.40;61.00;;;;;;4513417;31;20017;-67
2022/12/12 02:09:30;;;;;;;;;;;17.40;61.00;;;;;;4512628;31;20068;-67
2022/12/12 02:11:57;;;;;;;;;;;17.40;61.00;;;;;;4516546;31;20032;-68
2022/12/12 02:14:33;;;;;;;;;;;17.40;61.00;;;;;;4515720;31;20032;-67
2022/12/12 02:17:12;;;;;;;;;;;17.40;61.00;;;;;;4515631;31;20038;-67
2022/12/12 02:19:38;;;;;;;;;;;17.40;60.90;;;;;;4516288;31;20013;-68
2022/12/12 02:22:11;;;;;;;;;;;17.30;60.80;;;;;;4515447;31;20075;-67
2022/12/12 02:24:53;;;;;;;;;;;17.30;60.90;;;;;;4515237;31;20044;-67
2022/12/12 02:27:31;;;;;;;;;;;17.30;60.90;;;;;;4515534;31;20028;-67
2022/12/12 02:30:06;;;;;;;;;;;17.30;60.90;;;;;;4515802;31;20024;-67
2022/12/12 02:32:32;;;;;;;;;;;17.30;60.90;;;;;;4515001;31;20040;-67
2022/12/12 02:35:09;;;;;;;;;;;17.30;60.80;;;;;;4515217;31;20029;-67
2022/12/12 02:37:55;;;;;;;;;;;17.30;60.90;;;;;;4516150;31;20028;-68
2022/12/12 02:40:36;;;;;;;;;;;17.30;60.90;;;;;;4515312;31;20025;-67
2022/12/12 02:43:09;;;;;;;;;;;17.30;60.90;;;;;;4515348;31;20087;-67
2022/12/12 02:45:48;;;;;;;;;;;17.30;60.80;;;;;;4516165;31;20040;-67
2022/12/12 02:48:18;;;;;;;;;;;17.30;60.90;;;;;;4514959;31;20037;-67
2022/12/12 02:50:46;;;;;;;;;;;17.30;60.80;;;;;;4514811;31;20040;-66
2022/12/12 02:53:15;;;;;;;;;;;17.30;60.80;;;;;;4515087;31;20114;-67
2022/12/12 02:55:41;;;;;;;;;;;17.30;60.80;;;;;;4515256;31;20202;-67
2022/12/12 02:58:07;;;;;;;;;;;17.30;60.90;;;;;;4515533;31;20032;-67
2022/12/12 03:00:39;;;;;;;;;;;17.30;60.80;;;;;;4514873;31;20025;-67
2022/12/12 03:09:04;;;;;;;;;;;17.30;60.90;;;;;;4515076;31;20033;-66
2022/12/12 03:11:30;;;;;;;;;;;17.20;60.80;;;;;;4515672;31;20028;-67
2022/12/12 03:14:19;;;;;;;;;;;17.20;60.80;;;;;;4514684;31;20078;-67
2022/12/12 03:16:55;;;;;;;;;;;17.20;60.70;;;;;;4510393;31;20037;-67
2022/12/12 03:19:29;;;;;;;;;;;17.20;60.80;;;;;;4515304;31;20142;-67
2022/12/12 03:22:05;;;;;;;;;;;17.20;60.80;;;;;;4514461;31;20174;-67
2022/12/12 03:24:36;;;;;;;;;;;17.20;60.80;;;;;;4515582;31;20028;-67
2022/12/12 03:27:41;;;;;;;;;;;17.20;60.80;;;;;;4514519;31;20137;-67
2022/12/12 03:30:10;;;;;;;;;;;17.20;60.70;;;;;;4470841;32;20038;-67
2022/12/12 03:32:49;;;;;;;;;;;17.20;60.80;;;;;;4468401;32;20148;-67
2022/12/12 03:35:18;;;;;;;;;;;17.20;60.80;;;;;;4489676;31;20559;-67
2022/12/12 03:37:56;;;;;;;;;;;17.20;60.80;;;;;;4515131;31;20036;-67
2022/12/12 03:40:49;;;;;;;;;;;17.20;60.80;;;;;;4514825;31;20013;-67
2022/12/12 03:43:36;;;;;;;;;;;17.20;60.80;;;;;;4503465;31;20073;-67
2022/12/12 03:46:08;;;;;;;;;;;17.20;60.70;;;;;;4513987;31;20155;-67
2022/12/12 03:48:36;;;;;;;;;;;17.20;61.00;;;;;;4514320;31;20033;-68
2022/12/12 03:51:05;;;;;;;;;;;17.20;61.20;;;;;;4513697;31;20035;-67
2022/12/12 03:53:39;;;;;;;;;;;17.20;61.20;;;;;;4513794;31;20025;-67
2022/12/12 03:56:11;;;;;;;;;;;17.20;61.30;;;;;;4513981;31;20029;-67
2022/12/12 03:58:55;;;;;;;;;;;17.20;61.30;;;;;;4513926;31;20036;-67
2022/12/12 04:01:23;;;;;;;;;;;17.20;61.30;;;;;;4513026;31;20029;-68
2022/12/12 04:03:59;;;;;;;;;;;17.20;61.40;;;;;;4514385;31;20056;-68
2022/12/12 04:06:36;;;;;;;;;;;17.20;61.40;;;;;;4514768;31;20459;-68
2022/12/12 04:14:44;;;;;;;;;;;17.20;61.70;;;;;;4514416;31;20493;-67
2022/12/12 04:17:11;;;;;;;;;;;17.20;61.40;;;;;;4513672;31;20079;-67
2022/12/12 04:25:25;;;;;;;;;;;17.10;61.20;;;;;;4514199;31;20080;-67
2022/12/12 04:27:54;;;;;;;;;;;17.10;61.20;;;;;;4513185;31;20021;-67
2022/12/12 04:30:20;;;;;;;;;;;17.10;61.10;;;;;;4513590;31;20405;-67
2022/12/12 04:32:46;;;;;;;;;;;17.10;61.10;;;;;;4514078;31;20035;-67
2022/12/12 04:35:12;;;;;;;;;;;17.10;61.10;;;;;;4513423;31;20167;-67
2022/12/12 04:37:40;;;;;;;;;;;17.10;61.10;;;;;;4513286;31;20095;-67
2022/12/12 04:40:08;;;;;;;;;;;17.10;61.10;;;;;;4513517;31;20141;-67
2022/12/12 04:42:37;;;;;;;;;;;17.10;60.90;;;;;;4513737;31;20044;-67
2022/12/12 04:45:10;;;;;;;;;;;17.10;61.00;;;;;;4513949;31;20035;-67
2022/12/12 04:47:37;;;;;;;;;;;17.10;61.00;;;;;;4513157;31;20492;-67
2022/12/12 04:50:03;;;;;;;;;;;17.10;61.00;;;;;;4514172;31;20025;-67
2022/12/12 04:52:30;;;;;;;;;;;17.10;61.00;;;;;;4513125;31;20028;-67
2022/12/12 04:55:04;;;;;;;;;;;17.10;61.00;;;;;;4513974;31;20174;-67
2022/12/12 04:57:41;;;;;;;;;;;17.10;61.00;;;;;;4513365;31;20040;-67
2022/12/12 05:00:08;;;;;;;;;;;17.10;61.00;;;;;;4513461;31;20047;-67
2022/12/12 05:02:46;;;;;;;;;;;17.10;60.90;;;;;;4513717;31;20190;-67
2022/12/12 05:05:18;;;;;;;;;;;17.00;60.90;;;;;;4512940;31;20040;-67
2022/12/12 05:07:49;;;;;;;;;;;17.00;60.90;;;;;;4513989;31;20051;-67
2022/12/12 05:10:16;;;;;;;;;;;17.00;60.90;;;;;;4513247;31;20081;-67
2022/12/12 05:12:45;;;;;;;;;;;17.00;60.90;;;;;;4513444;31;20033;-67
2022/12/12 05:15:12;;;;;;;;;;;17.00;60.90;;;;;;4513547;31;20041;-67
2022/12/12 05:17:42;;;;;;;;;;;17.00;60.90;;;;;;4512759;31;20032;-67
2022/12/12 05:20:09;;;;;;;;;;;17.00;60.80;;;;;;4513700;31;20025;-67
2022/12/12 05:22:35;;;;;;;;;;;17.00;60.80;;;;;;4512930;31;20159;-67
2022/12/12 05:25:04;;;;;;;;;;;17.00;60.80;;;;;;4513723;31;20096;-67
2022/12/12 05:27:29;;;;;;;;;;;17.00;60.80;;;;;;4513107;31;20085;-67
2022/12/12 05:29:56;;;;;;;;;;;17.00;60.80;;;;;;4513152;31;20049;-67
2022/12/12 05:32:22;;;;;;;;;;;17.00;60.80;;;;;;4513429;31;20702;-67
2022/12/12 05:34:48;;;;;;;;;;;17.00;60.80;;;;;;4511641;31;20089;-67
2022/12/12 05:37:13;;;;;;;;;;;17.00;60.70;;;;;;4513549;31;20217;-67
2022/12/12 05:39:40;;;;;;;;;;;17.00;60.60;;;;;;4512408;31;20076;-67
2022/12/12 05:42:06;;;;;;;;;;;17.00;60.70;;;;;;4513493;31;20145;-67
2022/12/12 05:44:32;;;;;;;;;;;17.00;60.70;;;;;;4512967;31;20094;-67
2022/12/12 05:46:58;;;;;;;;;;;17.00;60.70;;;;;;4516282;31;20028;-67
2022/12/12 05:49:23;;;;;;;;;;;17.00;60.70;;;;;;4515441;31;20031;-67
2022/12/12 05:51:50;;;;;;;;;;;17.00;60.70;;;;;;4515839;31;20048;-67
2022/12/12 05:54:36;;;;;;;;;;;17.00;60.70;;;;;;4504834;31;20032;-67
2022/12/12 05:57:22;;;;;;;;;;;17.00;60.60;;;;;;4515237;31;20037;-67
2022/12/12 06:00:08;;;;;;;;;;;16.90;60.60;;;;;;4504090;31;20720;-67
2022/12/12 06:02:53;;;;;;;;;;;16.90;60.70;;;;;;4502708;31;20047;-67
2022/12/12 06:05:39;;;;;;;;;;;16.90;60.60;;;;;;4505363;31;20024;-66
2022/12/12 06:08:25;;;;;;;;;;;16.90;60.50;;;;;;4490156;31;20090;-67
2022/12/12 06:11:10;;;;;;;;;;;16.90;60.60;;;;;;4515935;31;20075;-67
2022/12/12 06:13:56;;;;;;;;;;;16.90;60.60;;;;;;4492709;31;20444;-67
2022/12/12 06:16:42;;;;;;;;;;;16.90;60.50;;;;;;4514769;31;20461;-67
2022/12/12 06:19:27;;;;;;;;;;;16.90;60.60;;;;;;4504477;31;20133;-67
2022/12/12 06:22:13;;;;;;;;;;;16.90;60.60;;;;;;4492624;31;20041;-66
2022/12/12 06:24:59;;;;;;;;;;;16.90;61.30;;;;;;4504317;31;20009;-67
2022/12/12 06:27:45;;;;;;;;;;;16.90;61.50;;;;;;4504168;31;20024;-67
2022/12/12 06:30:31;;;;;;;;;;;16.90;62.00;;;;;;4514405;31;20016;-67
2022/12/12 06:33:17;;;;;;;;;;;16.90;62.10;;;;;;4515510;31;20445;-67
2022/12/12 06:36:04;;;;;;;;;;;16.90;62.40;;;;;;4492376;31;20559;-67
2022/12/12 06:38:50;;;;;;;;;;;16.90;62.30;;;;;;4503338;31;20100;-66
2022/12/12 06:41:36;;;;;;;;;;;17.00;62.60;;;;;;4515352;31;20323;-66
2022/12/12 06:44:22;;;;;;;;;;;17.00;62.60;;;;;;4503364;31;20033;-67
2022/12/12 06:47:07;;;;;;;;;;;17.00;62.00;;;;;;4503136;31;20699;-67
2022/12/12 06:49:53;;;;;;;;;;;17.10;61.80;;;;;;4515223;31;20103;-67
2022/12/12 06:52:39;;;;;;;;;;;17.20;61.30;;;;;;4514204;31;20021;-66
2022/12/12 06:55:24;;;;;;;;;;;17.30;61.10;;;;;;4514318;31;20116;-66
2022/12/12 06:58:10;;;;;;;;;;;17.50;60.80;;;;;;4514978;31;20033;-65
2022/12/12 07:00:56;;;;;;;;;;;17.60;61.40;;;;;;4508889;31;20039;-66
2022/12/12 07:03:41;;;;;;;;;;;17.70;60.10;;;;;;4502940;31;20226;-66
2022/12/12 07:06:27;;;;;;;;;;;17.90;59.90;;;;;;4514111;31;20040;-67
2022/12/12 07:09:13;;;;;;;;;;;18.10;59.60;;;;;;4501370;31;20045;-68
2022/12/12 07:11:58;;;;;;;;;;;18.20;59.40;;;;;;4502102;31;20095;-67
2022/12/12 07:14:44;;;;;;;;;;;18.30;59.10;;;;;;4490638;31;20531;-67
2022/12/12 07:17:30;;;;;;;;;;;18.30;58.90;;;;;;4501085;31;20029;-67
2022/12/12 07:20:15;;;;;;;;;;;18.40;58.80;;;;;;4502212;31;20058;-67
2022/12/12 07:23:01;;;;;;;;;;;18.40;58.70;;;;;;4502030;31;20037;-67
2022/12/12 07:25:47;;;;;;;;;;;18.50;58.60;;;;;;4501677;31;20039;-67
2022/12/12 07:28:32;;;;;;;;;;;18.60;58.50;;;;;;4505206;31;20041;-67
2022/12/12 07:31:20;;;;;;;;;;;18.60;58.30;;;;;;4501172;31;20036;-68
2022/12/12 07:33:46;;;;;;;;;;;18.70;58.10;;;;;;4505516;31;20081;-67
2022/12/12 07:36:12;;;;;;;;;;;18.80;57.90;;;;;;4502208;31;20132;-67
2022/12/12 07:38:38;;;;;;;;;;;18.90;57.80;;;;;;4504581;31;20147;-67
2022/12/12 07:41:06;;;;;;;;;;;18.90;57.60;;;;;;4503048;31;20043;-67
2022/12/12 07:43:35;;;;;;;;;;;19.00;57.50;;;;;;4502978;31;20083;-67
2022/12/12 07:46:01;;;;;;;;;;;19.00;57.40;;;;;;4504083;31;20088;-67
2022/12/12 07:48:30;;;;;;;;;;;19.00;57.30;;;;;;4502161;31;20079;-67
2022/12/12 07:50:58;;;;;;;;;;;19.00;57.30;;;;;;4511448;31;20075;-67
2022/12/12 07:53:24;;;;;;;;;;;19.10;57.30;;;;;;4502051;31;20040;-67
2022/12/12 07:55:49;;;;;;;;;;;19.10;57.30;;;;;;4504781;31;20024;-67
2022/12/12 07:58:15;;;;;;;;;;;19.10;57.30;;;;;;4501500;31;20102;-67
2022/12/12 08:00:41;;;;;;;;;;;19.10;57.30;;;;;;4503568;31;20025;-67
2022/12/12 08:03:07;;;;;;;;;;;19.10;57.20;;;;;;4503568;31;20072;-67
2022/12/12 08:05:33;;;;;;;;;;;19.10;57.20;;;;;;4514130;31;20155;-67
2022/12/12 08:07:59;;;;;;;;;;;19.20;57.20;;;;;;4512786;31;20013;-68
2022/12/12 08:10:25;;;;;;;;;;;19.20;57.20;;;;;;4514402;31;20013;-67
2022/12/12 08:12:50;;;;;;;;;;;19.20;57.20;;;;;;4514060;31;20155;-67
2022/12/12 08:15:16;;;;;;;;;;;19.20;57.10;;;;;;4514473;31;20009;-67
2022/12/12 08:17:43;;;;;;;;;;;19.20;57.10;;;;;;4513522;31;20551;-67
2022/12/12 08:20:09;;;;;;;;;;;19.20;57.10;;;;;;4514641;31;20421;-67
2022/12/12 08:22:35;;;;;;;;;;;19.20;57.10;;;;;;4513731;31;20025;-67
2022/12/12 08:25:01;;;;;;;;;;;19.20;57.10;;;;;;4514197;31;20028;-67
2022/12/12 08:27:26;;;;;;;;;;;19.20;57.10;;;;;;4513921;31;20017;-67
2022/12/12 08:29:53;;;;;;;;;;;19.20;57.10;;;;;;4512718;31;20039;-67
2022/12/12 08:32:19;;;;;;;;;;;19.20;57.10;;;;;;4513331;31;20076;-67
2022/12/12 08:34:46;;;;;;;;;;;19.20;57.00;;;;;;4513016;31;20250;-66
2022/12/12 08:37:13;;;;;;;;;;;19.30;57.10;;;;;;4511676;31;20170;-65
2022/12/12 08:39:38;;;;;;;;;;;19.30;57.10;;;;;;4497835;31;20033;-65
2022/12/12 08:42:04;;;;;;;;;;;19.30;57.10;;;;;;4498631;31;20064;-65
2022/12/12 08:44:30;;;;;;;;;;;19.30;57.20;;;;;;4497041;31;20076;-65
2022/12/12 08:46:56;;;;;;;;;;;19.30;57.20;;;;;;4496695;31;20025;-65
2022/12/12 08:49:22;;;;;;;;;;;19.30;57.20;;;;;;4498572;31;20033;-66
2022/12/12 08:51:50;;;;;;;;;;;19.30;57.20;;;;;;4497629;31;20079;-65
2022/12/12 08:54:16;;;;;;;;;;;19.30;57.30;;;;;;4506904;31;20060;-66
2022/12/12 08:56:41;;;;;;;;;;;19.30;57.30;;;;;;4511388;31;20233;-65
2022/12/12 08:59:08;;;;;;;;;;;19.30;57.30;;;;;;4511384;31;20473;-65
2022/12/12 09:01:34;;;;;;;;;;;19.40;57.40;;;;;;4511676;31;20036;-66
2022/12/12 09:04:00;;;;;;;;;;;19.40;57.40;;;;;;4498291;31;20081;-66
2022/12/12 09:06:29;;;;;;;;;;;19.40;57.50;;;;;;4511340;31;20052;-65
2022/12/12 09:08:56;;;;;;;;;;;19.40;57.50;;;;;;4511095;31;21987;-66
2022/12/12 09:11:22;;;;;;;;;;;19.40;57.50;;;;;;4512902;31;20032;-66
2022/12/12 09:13:48;;;;;;;;;;;19.40;57.50;;;;;;4497903;31;20016;-69
2022/12/12 09:16:14;;;;;;;;;;;19.40;57.50;;;;;;4504233;31;20076;-66
2022/12/12 09:18:40;;;;;;;;;;;19.40;57.50;;;;;;4501172;31;20214;-66
2022/12/12 09:21:06;;;;;;;;;;;19.40;57.50;;;;;;4499448;31;20107;-65
2022/12/12 09:23:32;;;;;;;;;;;19.40;57.50;;;;;;4505385;31;20036;-65
2022/12/12 09:26:05;;;;;;;;;;;19.40;57.40;;;;;;4504889;31;20485;-65
2022/12/12 09:28:30;;;;;;;;;;;19.40;57.40;;;;;;4511704;31;20061;-66
2022/12/12 09:30:56;;;;;;;;;;;19.50;57.40;;;;;;4507932;31;20033;-65
2022/12/12 09:33:28;;;;;;;;;;;19.50;57.30;;;;;;4510135;31;20603;-65
2022/12/12 09:35:58;;;;;;;;;;;19.50;57.30;;;;;;4504846;31;20159;-65
2022/12/12 09:38:23;;;;;;;;;;;19.50;57.30;;;;;;4509507;31;20117;-65
2022/12/12 09:40:49;;;;;;;;;;;19.50;57.30;;;;;;4507424;31;20037;-65
2022/12/12 09:43:18;;;;;;;;;;;19.50;57.40;;;;;;4508456;31;20013;-65
2022/12/12 09:45:44;;;;;;;;;;;19.50;57.40;;;;;;4510144;31;20025;-65
2022/12/12 09:48:11;;;;;;;;;;;19.50;57.50;;;;;;4510610;31;20037;-66
2022/12/12 09:50:40;;;;;;;;;;;19.50;57.50;;;;;;4511227;31;20479;-66
2022/12/12 09:53:10;;;;;;;;;;;19.50;57.50;;;;;;4510708;31;20137;-67
2022/12/12 09:55:46;;;;;;;;;;;19.50;57.60;;;;;;4511174;31;20041;-66
2022/12/12 09:58:30;;;;;;;;;;;19.50;57.70;;;;;;4510447;31;20035;-66
2022/12/12 10:01:01;;;;;;;;;;;19.50;57.80;;;;;;4510702;31;20035;-66
2022/12/12 10:03:43;;;;;;;;;;;19.50;57.90;;;;;;4508863;31;20020;-67
2022/12/12 10:06:09;;;;;;;;;;;19.40;57.90;;;;;;4512034;31;20046;-66
2022/12/12 10:08:35;;;;;;;;;;;19.40;58.00;;;;;;4510886;31;20582;-65
2022/12/12 10:11:48;;;;;;;;;;;19.50;58.00;;;;;;4512781;31;20490;-65
2022/12/12 10:13:59;;;;;;;;;;;19.40;58.00;;;;;;4511687;31;20182;-66
2022/12/12 10:16:25;;;;;;;;;;;19.40;57.90;;;;;;4512954;31;20028;-66
2022/12/12 10:18:52;;;;;;;;;;;19.50;58.00;;;;;;4511918;31;20021;-66
2022/12/12 10:21:24;;;;;;;;;;;19.50;58.00;;;;;;4512522;31;20033;-65
2022/12/12 10:23:59;;;;;;;;;;;19.50;57.90;;;;;;4511008;31;20151;-66
2022/12/12 10:26:45;;;;;;;;;;;19.50;57.90;;;;;;4509631;31;20045;-66
2022/12/12 10:29:30;;;;;;;;;;;19.50;57.90;;;;;;4503849;31;20045;-67
2022/12/12 10:32:19;;;;;;;;;;;19.50;57.90;;;;;;4490978;31;20061;-66
2022/12/12 10:35:24;;;;;;;;;;;19.50;57.90;;;;;;4492707;31;20032;-66
2022/12/12 10:37:50;;;;;;;;;;;19.50;57.90;;;;;;4503387;31;20025;-66
2022/12/12 10:40:22;;;;;;;;;;;19.50;57.90;;;;;;4505294;31;20021;-66
2022/12/12 10:43:17;;;;;;;;;;;19.50;57.90;;;;;;4503047;31;20021;-66
2022/12/12 10:45:54;;;;;;;;;;;19.50;57.90;;;;;;4503068;31;20025;-65
2022/12/12 10:48:20;;;;;;;;;;;19.50;57.90;;;;;;4502439;31;20052;-65
2022/12/12 10:50:49;;;;;;;;;;;19.50;57.90;;;;;;4506352;31;20031;-66
2022/12/12 10:53:16;;;;;;;;;;;19.50;58.00;;;;;;4503039;31;20506;-65
2022/12/12 10:55:45;;;;;;;;;;;19.50;58.00;;;;;;4505605;31;20043;-66
2022/12/12 10:58:11;;;;;;;;;;;19.50;58.20;;;;;;4510405;31;20495;-65
2022/12/12 11:00:38;;;;;;;;;;;19.50;57.90;;;;;;4512183;31;20517;-65
2022/12/12 11:03:13;;;;;;;;;;;19.60;57.80;;;;;;4513096;31;20174;-66
2022/12/12 11:05:40;;;;;;;;;;;19.70;57.70;;;;;;4512585;31;20039;-65
2022/12/12 11:08:16;;;;;;;;;;;19.80;57.50;;;;;;4510129;31;20166;-65
2022/12/12 11:10:42;;;;;;;;;;;19.80;57.40;;;;;;4513538;31;20044;-63
2022/12/12 11:13:08;;;;;;;;;;;19.90;57.20;;;;;;4504902;31;20017;-65
2022/12/12 11:15:45;;;;;;;;;;;20.00;57.00;;;;;;4502950;31;20464;-66
2022/12/12 11:18:16;;;;;;;;;;;20.00;56.80;;;;;;4491261;31;35612;-66
2022/12/12 11:20:47;;;;;;;;;;;20.10;56.70;;;;;;4510481;31;20025;-67
2022/12/12 11:23:32;;;;;;;;;;;20.10;56.60;;;;;;4513206;31;20032;-66
2022/12/12 11:26:03;;;;;;;;;;;20.20;56.60;;;;;;4512045;31;20401;-66
2022/12/12 11:28:32;;;;;;;;;;;20.20;56.50;;;;;;4513394;31;20788;-67
2022/12/12 11:31:00;;;;;;;;;;;20.20;56.50;;;;;;4509175;31;20043;-67
2022/12/12 11:33:32;;;;;;;;;;;20.20;56.40;;;;;;4512745;31;20214;-67
2022/12/12 11:36:00;;;;;;;;;;;20.30;56.40;;;;;;4513355;31;20570;-66
2022/12/12 11:38:32;;;;;;;;;;;20.30;56.30;;;;;;4511832;31;20045;-66
2022/12/12 11:41:08;;;;;;;;;;;20.30;56.30;;;;;;4509704;31;20073;-67
2022/12/12 11:43:36;;;;;;;;;;;20.30;56.30;;;;;;4506856;31;20163;-67
2022/12/12 11:46:04;;;;;;;;;;;20.30;56.20;;;;;;4511107;31;20032;-68
2022/12/12 11:48:53;;;;;;;;;;;20.40;56.20;;;;;;4500970;31;20037;-66
2022/12/12 11:51:42;;;;;;;;;;;20.40;56.10;;;;;;4510869;31;20047;-65
2022/12/12 11:54:31;;;;;;;;;;;20.40;56.10;;;;;;4513143;31;20077;-66
2022/12/12 11:57:35;;;;;;;;;;;20.40;56.00;;;;;;4501965;31;20355;-66
2022/12/12 12:00:32;;;;;;;;;;;20.50;56.00;;;;;;4502705;31;20036;-67
2022/12/12 12:03:00;;;;;;;;;;;20.50;56.00;;;;;;4500184;31;20074;-66
2022/12/12 12:05:38;;;;;;;;;;;20.50;56.00;;;;;;4507953;31;20028;-67
2022/12/12 12:08:13;;;;;;;;;;;20.50;56.00;;;;;;4511972;31;20032;-66
2022/12/12 12:10:58;;;;;;;;;;;20.50;56.00;;;;;;4512013;31;20044;-66
2022/12/12 12:13:32;;;;;;;;;;;20.50;56.10;;;;;;4511325;31;20446;-66
2022/12/12 12:16:21;;;;;;;;;;;20.50;56.20;;;;;;4513270;31;20086;-67
2022/12/12 12:18:53;;;;;;;;;;;20.40;56.20;;;;;;4509856;31;20086;-65
2022/12/12 12:21:21;;;;;;;;;;;20.40;56.30;;;;;;4504785;31;20197;-66
2022/12/12 12:23:56;;;;;;;;;;;20.50;56.30;;;;;;4511376;31;20165;-68
2022/12/12 12:26:41;;;;;;;;;;;20.40;56.30;;;;;;4512172;31;20042;-66
2022/12/12 12:29:23;;;;;;;;;;;20.50;56.30;;;;;;4511600;31;20363;-66
2022/12/12 12:31:49;;;;;;;;;;;20.50;56.20;;;;;;4512786;31;20042;-66
2022/12/12 12:34:22;;;;;;;;;;;20.50;56.10;;;;;;4510964;31;20043;-66
2022/12/12 12:37:14;;;;;;;;;;;20.60;56.10;;;;;;4512868;31;20037;-66
2022/12/12 12:39:51;;;;;;;;;;;20.60;56.00;;;;;;4512128;31;20225;-66
2022/12/12 12:42:31;;;;;;;;;;;20.60;55.90;;;;;;4502363;31;24093;-69
2022/12/12 12:45:23;;;;;;;;;;;20.70;56.00;;;;;;4502999;31;20113;-66
2022/12/12 12:47:54;;;;;;;;;;;20.70;56.00;;;;;;4484663;31;20029;-66
2022/12/12 12:50:29;;;;;;;;;;;20.70;56.00;;;;;;4506599;31;20159;-67
2022/12/12 12:53:06;;;;;;;;;;;20.70;56.00;;;;;;4502053;31;20033;-67
2022/12/12 12:55:44;;;;;;;;;;;20.70;56.10;;;;;;4509342;31;20055;-67
2022/12/12 12:58:22;;;;;;;;;;;20.70;56.00;;;;;;4511584;31;20045;-67
2022/12/12 13:00:52;;;;;;;;;;;20.80;56.10;;;;;;4512301;31;20029;-67
2022/12/12 13:03:20;;;;;;;;;;;20.80;56.10;;;;;;4508151;31;20055;-67
2022/12/12 13:05:49;;;;;;;;;;;20.80;56.10;;;;;;4510325;31;20085;-67
2022/12/12 13:08:20;;;;;;;;;;;20.80;56.10;;;;;;4507944;31;20084;-66
2022/12/12 13:10:48;;;;;;;;;;;20.80;56.10;;;;;;4510730;31;20024;-67
2022/12/12 13:13:21;;;;;;;;;;;20.90;56.20;;;;;;4510324;31;20085;-68
2022/12/12 13:15:50;;;;;;;;;;;20.90;56.10;;;;;;4509771;31;20101;-67
2022/12/12 13:18:16;;;;;;;;;;;20.90;56.10;;;;;;4511028;31;20039;-68
2022/12/12 13:20:51;;;;;;;;;;;20.90;56.10;;;;;;4511067;31;20028;-68
2022/12/12 13:23:46;;;;;;;;;;;20.90;56.20;;;;;;4512497;31;20163;-66
2022/12/12 13:26:25;;;;;;;;;;;20.90;56.20;;;;;;4510044;31;20040;-66
2022/12/12 13:28:55;;;;;;;;;;;20.90;56.10;;;;;;4507827;31;20389;-68
2022/12/12 13:31:34;;;;;;;;;;;20.90;56.10;;;;;;4509943;31;20518;-68
2022/12/12 13:34:05;;;;;;;;;;;20.90;56.00;;;;;;4509815;31;20170;-67
2022/12/12 13:36:33;;;;;;;;;;;21.00;56.10;;;;;;4510747;31;20095;-68
2022/12/12 13:39:01;;;;;;;;;;;21.00;56.10;;;;;;4510649;31;20166;-68
2022/12/12 13:41:46;;;;;;;;;;;21.00;56.10;;;;;;4512747;31;20044;-67
2022/12/12 13:44:31;;;;;;;;;;;21.00;56.00;;;;;;4511786;31;20185;-67
2022/12/12 13:46:57;;;;;;;;;;;21.00;56.00;;;;;;4510392;31;20044;-68
2022/12/12 13:49:29;;;;;;;;;;;21.00;56.00;;;;;;4508629;31;20079;-68
2022/12/12 13:52:13;;;;;;;;;;;21.00;55.90;;;;;;4510722;31;20039;-68
2022/12/12 13:54:44;;;;;;;;;;;21.00;55.90;;;;;;4511000;31;20600;-69
2022/12/12 13:57:11;;;;;;;;;;;21.00;55.90;;;;;;4511567;31;20165;-68
2022/12/12 13:59:51;;;;;;;;;;;21.00;56.00;;;;;;4510553;31;20419;-69
2022/12/12 14:02:37;;;;;;;;;;;21.00;56.00;;;;;;4509541;31;20021;-66
2022/12/12 14:05:31;;;;;;;;;;;21.00;56.00;;;;;;4509935;31;20134;-66
2022/12/12 14:08:17;;;;;;;;;;;21.00;56.10;;;;;;4511860;31;20044;-67
2022/12/12 14:11:01;;;;;;;;;;;21.00;56.10;;;;;;4516067;31;20082;-69
2022/12/12 14:13:33;;;;;;;;;;;21.00;56.10;;;;;;4510411;31;20508;-68
2022/12/12 14:16:03;;;;;;;;;;;21.00;56.10;;;;;;4512553;31;20098;-68
2022/12/12 14:18:29;;;;;;;;;;;21.00;56.10;;;;;;4512501;31;20042;-69
2022/12/12 14:21:02;;;;;;;;;;;21.00;56.00;;;;;;4511805;31;20040;-68
2022/12/12 14:23:49;;;;;;;;;;;21.00;56.00;;;;;;4512065;31;20462;-67
2022/12/12 14:26:27;;;;;;;;;;;21.00;56.00;;;;;;4513406;31;20044;-67
2022/12/12 14:29:25;;;;;;;;;;;21.00;55.90;;;;;;4511858;31;20178;-67
2022/12/12 14:31:57;;;;;;;;;;;21.10;56.00;;;;;;4495166;31;20158;-67
2022/12/12 14:34:47;;;;;;;;;;;21.00;55.90;;;;;;4512421;31;20094;-68
2022/12/12 14:37:32;;;;;;;;;;;21.00;55.80;;;;;;4515283;31;20400;-67
2022/12/12 14:40:01;;;;;;;;;;;21.00;55.60;;;;;;4512886;31;20394;-68
2022/12/12 14:42:42;;;;;;;;;;;21.00;55.60;;;;;;4510526;31;20087;-68
2022/12/12 14:45:22;;;;;;;;;;;21.00;55.60;;;;;;4510516;31;20040;-68
2022/12/12 14:47:48;;;;;;;;;;;21.00;55.60;;;;;;4510070;31;20060;-67
2022/12/12 14:50:16;;;;;;;;;;;21.10;55.60;;;;;;4513818;31;20047;-67
2022/12/12 14:52:41;;;;;;;;;;;21.10;55.60;;;;;;4510180;31;20171;-67
2022/12/12 14:55:13;;;;;;;;;;;21.10;55.40;;;;;;4512631;31;20338;-68
2022/12/12 14:57:38;;;;;;;;;;;21.10;55.40;;;;;;4510832;31;20159;-67
2022/12/12 15:00:14;;;;;;;;;;;21.10;55.40;;;;;;4512502;31;20070;-68
2022/12/12 15:02:46;;;;;;;;;;;21.10;55.40;;;;;;4513214;31;20040;-68
2022/12/12 15:05:13;;;;;;;;;;;21.10;55.50;;;;;;4512308;31;20045;-67
2022/12/12 15:07:39;;;;;;;;;;;21.10;55.70;;;;;;4505256;31;20541;-67